Time;durP1;ratioP1;P1;durP2;ratioP2;P2;SDS_P1;SDS_P2;PMS_P1;PMS_P2;Temp;Humidity;BMP_temperature;BMP_pressure;BME280_temperature;BME280_humidity;BME280_pressure;Samples;Min_cycle;Max_cycle;Signal;HPM_P1;HPM_P2
2023/10/07 00:00:52;;;;;;;8.43;1.17;;;;;;;14.15;63.16;101563.19;4922773;28;20049;-72
2023/10/07 00:03:21;;;;;;;12.63;1.83;;;;;;;14.28;62.94;101570.56;4912748;28;20103;-72
2023/10/07 00:05:50;;;;;;;9.10;2.28;;;;;;;13.92;64.46;101572.09;4927799;28;20044;-72
2023/10/07 00:08:19;;;;;;;12.05;1.90;;;;;;;13.69;65.52;101561.69;4923211;28;20035;-72
2023/10/07 00:10:49;;;;;;;10.13;2.35;;;;;;;13.57;66.07;101570.09;4922050;28;20399;-72
2023/10/07 00:13:20;;;;;;;15.00;2.53;;;;;;;13.91;64.79;101570.38;4918969;28;20062;-72
2023/10/07 00:15:51;;;;;;;14.38;1.95;;;;;;;13.75;65.52;101571.94;4926096;28;20122;-73
2023/10/07 00:18:18;;;;;;;8.18;2.95;;;;;;;13.52;66.03;101575.53;4917401;28;20186;-73
2023/10/07 00:20:49;;;;;;;17.27;2.20;;;;;;;13.73;65.62;101571.16;4918877;28;20138;-73
2023/10/07 00:23:19;;;;;;;18.73;2.53;;;;;;;13.53;66.31;101569.34;4916287;28;20035;-72
2023/10/07 00:25:50;;;;;;;11.40;2.72;;;;;;;13.57;66.30;101554.34;4909548;29;20127;-76
2023/10/07 00:28:18;;;;;;;8.85;2.70;;;;;;;13.57;66.42;101559.59;4914756;28;20514;-72
2023/10/07 00:30:55;;;;;;;16.27;3.60;;;;;;;13.35;66.98;101560.44;4908036;28;20067;-71
2023/10/07 00:33:26;;;;;;;10.27;2.70;;;;;;;13.37;66.92;101558.63;4931353;28;20550;-71
2023/10/07 00:35:54;;;;;;;9.57;3.08;;;;;;;13.42;67.18;101556.63;4917940;28;20053;-71
2023/10/07 00:38:22;;;;;;;13.93;2.47;;;;;;;13.61;66.26;101556.78;4916150;28;20302;-72
2023/10/07 00:40:54;;;;;;;13.20;2.85;;;;;;;13.04;67.81;101555.56;4920387;28;20050;-71
2023/10/07 00:43:25;;;;;;;15.07;2.78;;;;;;;13.72;65.80;101543.19;4917071;28;20050;-69
2023/10/07 00:45:54;;;;;;;15.27;3.40;;;;;;;13.31;66.98;101548.34;4917759;28;20039;-70
2023/10/07 00:48:21;;;;;;;10.02;3.03;;;;;;;13.45;66.55;101550.41;4913685;28;20712;-70
2023/10/07 00:50:48;;;;;;;15.75;3.25;;;;;;;13.69;65.52;101543.31;4926717;28;20081;-70
2023/10/07 00:53:15;;;;;;;11.38;3.35;;;;;;;13.38;66.61;101544.56;4934370;28;20648;-70
2023/10/07 00:55:41;;;;;;;9.38;3.38;;;;;;;13.69;65.54;101543.31;4921338;28;20043;-70
2023/10/07 00:58:18;;;;;;;13.52;3.40;;;;;;;13.83;65.33;101556.72;4919640;28;20046;-70
2023/10/07 01:00:47;;;;;;;22.45;3.80;;;;;;;13.60;66.11;101548.97;4927820;28;20541;-72
2023/10/07 01:08:34;;;;;;;13.52;2.95;;;;;;;14.01;64.62;101549.81;4928583;28;20082;-75
2023/10/07 01:13:50;;;;;;;14.13;2.58;;;;;;;13.72;66.04;101558.97;4937445;28;20050;-76
2023/10/07 01:19:04;;;;;;;7.55;2.50;;;;;;;13.50;66.77;101538.81;4936348;28;20031;-70
2023/10/07 01:21:33;;;;;;;5.93;2.22;;;;;;;13.55;67.29;101540.41;4913535;28;20050;-70
2023/10/07 01:24:01;;;;;;;7.30;1.98;;;;;;;13.45;67.61;101546.03;4920081;28;20031;-72
2023/10/07 01:26:36;;;;;;;6.55;1.48;;;;;;;13.37;67.96;101553.38;4916936;28;20031;-71
2023/10/07 01:29:15;;;;;;;9.77;1.90;;;;;;;13.54;67.63;101542.16;4918908;28;20047;-71
2023/10/07 01:32:11;;;;;;;6.68;1.55;;;;;;;13.83;66.65;101542.72;4914958;28;20036;-71
2023/10/07 01:34:37;;;;;;;7.30;2.03;;;;;;;13.82;66.86;101539.25;4919756;28;20237;-71
2023/10/07 01:37:05;;;;;;;10.98;1.70;;;;;;;13.71;67.00;101542.31;4920382;28;20035;-72
2023/10/07 01:39:40;;;;;;;6.38;2.17;;;;;;;13.35;68.33;101534.19;4907384;28;20739;-74
2023/10/07 01:42:14;;;;;;;7.22;1.92;;;;;;;13.43;68.63;101532.09;4922276;28;20062;-70
2023/10/07 01:44:41;;;;;;;12.88;1.77;;;;;;;13.28;68.98;101551.97;4911632;28;20457;-70
2023/10/07 01:47:23;;;;;;;12.02;1.73;;;;;;;13.48;68.12;101545.91;4928943;28;20279;-70
2023/10/07 01:49:53;;;;;;;9.15;2.30;;;;;;;13.27;68.61;101541.50;4913300;28;20097;-69
2023/10/07 01:52:26;;;;;;;9.15;1.40;;;;;;;13.76;67.36;101538.66;4930015;28;20275;-69
2023/10/07 01:54:52;;;;;;;12.18;1.77;;;;;;;13.74;67.26;101541.31;4924866;28;20418;-70
2023/10/07 01:57:19;;;;;;;14.30;2.90;;;;;;;13.35;68.43;101543.84;4923337;28;20097;-71
2023/10/07 01:59:49;;;;;;;13.93;2.90;;;;;;;13.48;68.28;101537.16;4901749;29;20513;-70
2023/10/07 02:02:15;;;;;;;12.40;2.33;;;;;;;13.58;67.94;101540.28;4897211;29;20046;-70
2023/10/07 02:04:42;;;;;;;13.48;2.10;;;;;;;13.98;66.35;101543.81;4903021;28;20884;-70
2023/10/07 02:07:08;;;;;;;15.18;2.15;;;;;;;13.63;67.86;101533.06;4915695;28;20495;-70
2023/10/07 02:09:41;;;;;;;14.40;2.28;;;;;;;13.90;67.19;101531.03;4912915;28;20540;-70
2023/10/07 02:12:09;;;;;;;12.63;3.15;;;;;;;13.91;66.78;101545.88;4922957;28;20531;-70
2023/10/07 02:14:38;;;;;;;10.95;2.15;;;;;;;13.75;67.48;101537.81;4913964;28;20047;-71
2023/10/07 02:17:07;;;;;;;10.75;2.40;;;;;;;13.77;67.83;101543.84;4918373;28;20063;-71
2023/10/07 02:19:32;;;;;;;12.25;3.03;;;;;;;13.81;67.91;101541.91;4912018;28;20083;-71
2023/10/07 02:22:00;;;;;;;10.43;2.13;;;;;;;13.76;67.83;101544.75;4932484;28;20126;-71
2023/10/07 02:24:30;;;;;;;14.55;2.20;;;;;;;13.69;68.39;101546.78;4914648;28;20425;-71
2023/10/07 02:29:51;;;;;;;11.95;2.08;;;;;;;13.58;68.47;101540.28;4936616;28;20079;-72
2023/10/07 02:32:17;;;;;;;12.43;2.40;;;;;;;13.97;67.06;101547.41;4916290;28;21591;-72
2023/10/07 02:34:57;;;;;;;17.20;2.67;;;;;;;13.40;69.30;101552.38;4923203;28;20326;-71
2023/10/07 02:37:38;;;;;;;15.60;2.80;;;;;;;14.00;67.08;101561.22;4918992;28;20094;-72
2023/10/07 02:40:22;;;;;;;10.15;2.40;;;;;;;14.09;66.54;101558.19;4918480;28;20498;-72
2023/10/07 02:42:50;;;;;;;10.52;2.53;;;;;;;13.88;67.62;101565.25;4921387;28;20083;-73
2023/10/07 02:45:28;;;;;;;22.80;2.47;;;;;;;14.19;66.12;101556.03;4931718;28;20111;-73
2023/10/07 02:48:00;;;;;;;12.27;2.78;;;;;;;13.78;67.78;101563.94;4934330;28;20032;-72
2023/10/07 02:50:31;;;;;;;11.38;2.40;;;;;;;13.84;67.26;101562.81;4926376;28;20043;-72
2023/10/07 02:53:02;;;;;;;9.70;2.10;;;;;;;14.16;66.41;101553.53;4932070;28;20118;-72
2023/10/07 02:55:37;;;;;;;8.65;1.50;;;;;;;14.20;66.16;101560.34;4918416;28;20094;-72
2023/10/07 02:58:06;;;;;;;12.35;1.63;;;;;;;14.15;66.29;101560.56;4933798;28;20122;-72
2023/10/07 03:00:35;;;;;;;16.27;1.33;;;;;;;13.27;68.53;101562.50;4928891;28;20090;-71
2023/10/07 03:05:44;;;;;;;18.95;2.33;;;;;;;13.91;66.16;101565.09;4925687;28;20082;-71
2023/10/07 03:08:19;;;;;;;10.77;1.23;;;;;;;13.81;66.85;101574.31;4919109;28;20032;-71
2023/10/07 03:11:03;;;;;;;13.85;1.85;;;;;;;13.57;66.76;101578.00;4915832;28;20066;-71
2023/10/07 03:13:30;;;;;;;7.70;1.27;;;;;;;13.84;66.04;101573.34;4916430;28;20061;-71
2023/10/07 03:18:39;;;;;;;8.30;0.70;;;;;;;13.80;65.96;101580.47;4932621;28;20050;-69
2023/10/07 03:21:15;;;;;;;6.20;0.95;;;;;;;13.81;65.51;101576.97;4933909;28;20039;-70
2023/10/07 03:23:47;;;;;;;3.22;0.93;;;;;;;13.62;65.38;101568.13;4920159;28;20374;-72
2023/10/07 03:26:14;;;;;;;;;;;;;;;14.01;64.96;101575.22;4926375;28;20511;-75
2023/10/07 03:28:48;;;;;;;5.10;0.68;;;;;;;13.55;65.73;101582.41;4919705;28;19922;-76
2023/10/07 03:31:18;;;;;;;7.72;0.55;;;;;;;13.65;65.75;101589.88;4921385;28;20043;-76
2023/10/07 03:41:37;;;;;;;12.65;1.33;;;;;;;14.24;63.76;101577.72;4918939;28;20050;-76
2023/10/07 03:44:05;;;;;;;14.40;1.48;;;;;;;13.72;65.11;101569.47;4921008;28;20150;-73
2023/10/07 03:46:31;;;;;;;4.40;0.55;;;;;;;13.68;65.25;101581.03;4916302;28;20038;-73
2023/10/07 03:48:56;;;;;;;12.75;1.85;;;;;;;13.58;65.87;101582.31;4920047;28;20509;-70
2023/10/07 03:51:30;;;;;;;8.63;1.10;;;;;;;13.71;65.48;101584.34;4931478;28;20982;-70
2023/10/07 03:54:00;;;;;;;9.40;1.20;;;;;;;13.88;64.79;101591.53;4910508;28;20039;-77
2023/10/07 03:56:26;;;;;;;13.05;1.13;;;;;;;13.78;64.96;101590.19;4919200;28;20103;-79
2023/10/07 03:58:59;;;;;;;8.00;1.42;;;;;;;13.88;64.68;101588.91;4919948;28;20038;-75
2023/10/07 04:01:26;;;;;;;6.85;1.40;;;;;;;13.96;63.80;101587.72;4921197;28;20038;-71
2023/10/07 04:03:59;;;;;;;13.18;1.08;;;;;;;13.95;64.24;101581.63;4921020;28;20054;-71
2023/10/07 04:06:30;;;;;;;5.70;1.08;;;;;;;13.73;64.67;101577.25;4922977;28;20039;-71
2023/10/07 04:09:09;;;;;;;9.63;1.42;;;;;;;13.83;64.31;101572.50;4889477;28;20260;-71
2023/10/07 04:11:37;;;;;;;5.20;0.98;;;;;;;13.64;64.84;101571.56;4911027;28;20039;-71
2023/10/07 04:14:19;;;;;;;9.10;1.40;;;;;;;13.68;64.36;101566.09;4921796;28;20043;-70
2023/10/07 04:16:52;;;;;;;5.95;0.98;;;;;;;13.87;63.75;101563.53;4914177;28;20047;-71
2023/10/07 04:21:46;;;;;;;10.65;2.05;;;;;;;13.89;63.57;101571.34;4915048;28;20055;-69
2023/10/07 04:24:12;;;;;;;9.23;1.92;;;;;;;13.87;63.40;101557.44;4921519;28;20061;-73
2023/10/07 04:26:51;;;;;;;9.38;1.58;;;;;;;13.87;63.81;101558.28;4917157;28;20032;-70
2023/10/07 04:29:17;;;;;;;12.30;1.83;;;;;;;13.87;63.65;101560.91;4914994;28;20046;-70
2023/10/07 04:31:51;;;;;;;6.78;1.13;;;;;;;13.78;63.54;101553.41;4929243;28;20074;-74
2023/10/07 04:34:20;;;;;;;9.02;2.17;;;;;;;13.70;63.95;101556.38;4932807;28;20134;-71
2023/10/07 04:39:31;;;;;;;7.95;1.30;;;;;;;14.01;63.26;101556.81;4920450;28;20043;-71
2023/10/07 04:42:03;;;;;;;4.45;0.80;;;;;;;14.18;62.58;101556.09;4919409;28;20042;-70
2023/10/07 04:52:30;;;;;;;7.28;1.13;;;;;;;13.93;63.54;101563.28;4921954;28;20116;-71
2023/10/07 04:54:59;;;;;;;6.23;0.90;;;;;;;14.01;63.21;101560.34;4911040;28;20072;-70
2023/10/07 05:02:59;;;;;;;12.13;1.20;;;;;;;14.09;63.10;101549.47;4919565;28;20364;-69
2023/10/07 05:05:33;;;;;;;9.48;1.73;;;;;;;13.86;63.56;101548.69;4917088;28;20086;-71
2023/10/07 05:08:08;;;;;;;13.05;1.55;;;;;;;13.92;63.63;101543.19;4918453;28;20043;-70
2023/10/07 05:10:41;;;;;;;5.13;0.80;;;;;;;13.98;63.77;101538.56;4915875;28;20101;-70
2023/10/07 05:13:08;;;;;;;11.23;1.48;;;;;;;13.96;63.66;101535.16;4927927;28;20070;-70
2023/10/07 05:15:38;;;;;;;4.15;0.63;;;;;;;14.05;63.19;101546.09;4914825;28;20035;-70
2023/10/07 05:18:07;;;;;;;5.15;0.80;;;;;;;14.07;63.10;101530.28;4927040;28;20050;-70
2023/10/07 05:20:36;;;;;;;11.10;2.00;;;;;;;13.97;63.56;101531.63;4905012;28;20063;-70
2023/10/07 05:23:04;;;;;;;6.57;0.93;;;;;;;14.13;62.92;101532.63;4926787;28;20043;-71
2023/10/07 05:25:44;;;;;;;14.10;1.33;;;;;;;14.17;63.06;101531.59;4932833;28;20048;-71
2023/10/07 05:28:11;;;;;;;6.47;0.93;;;;;;;14.20;62.69;101534.06;4921388;28;20023;-70
2023/10/07 05:30:50;;;;;;;12.80;1.52;;;;;;;14.11;63.01;101530.06;4914205;28;20118;-71
2023/10/07 05:33:26;;;;;;;12.10;1.67;;;;;;;14.00;63.71;101536.72;4917909;28;20058;-73
2023/10/07 05:36:13;;;;;;;6.70;1.55;;;;;;;14.10;63.25;101527.53;4927745;28;20059;-71
2023/10/07 05:38:47;;;;;;;9.00;1.10;;;;;;;14.09;63.63;101521.41;4919404;28;20042;-71
2023/10/07 05:41:15;;;;;;;9.15;1.40;;;;;;;14.19;63.44;101516.59;4935848;28;20138;-71
2023/10/07 05:43:48;;;;;;;5.13;2.38;;;;;;;14.10;63.93;101527.53;4915536;28;20041;-72
2023/10/07 05:46:19;;;;;;;10.50;1.27;;;;;;;14.14;63.47;101529.06;4908584;28;20583;-72
2023/10/07 05:48:45;;;;;;;9.20;1.65;;;;;;;14.19;63.24;101527.13;4921656;28;20031;-72
2023/10/07 05:51:13;;;;;;;7.35;1.58;;;;;;;14.14;63.70;101526.44;4919238;28;20051;-72
2023/10/07 05:53:42;;;;;;;6.18;0.75;;;;;;;14.17;63.74;101525.47;4916612;28;20550;-72
2023/10/07 05:56:08;;;;;;;12.52;0.93;;;;;;;13.95;64.69;101515.91;4918995;28;20097;-71
2023/10/07 05:58:35;;;;;;;6.25;0.85;;;;;;;14.10;64.22;101517.88;4917488;28;20501;-69
2023/10/07 06:01:03;;;;;;;5.93;0.63;;;;;;;14.19;64.09;101516.59;4924446;28;20616;-72
2023/10/07 06:03:31;;;;;;;4.57;1.23;;;;;;;14.05;64.82;101517.19;4931626;28;20078;-71
2023/10/07 06:05:57;;;;;;;6.38;0.70;;;;;;;14.22;64.45;101513.81;4917097;28;20050;-73
2023/10/07 06:08:28;;;;;;;3.17;0.90;;;;;;;14.03;65.48;101511.19;4917250;28;20020;-72
2023/10/07 06:10:58;;;;;;;11.00;2.40;;;;;;;13.77;66.54;101504.44;4913721;28;21692;-72
2023/10/07 06:13:26;;;;;;;5.30;2.28;;;;;;;13.65;66.82;101518.97;4932412;28;20126;-72
2023/10/07 06:15:54;;;;;;;11.73;2.95;;;;;;;13.70;66.68;101514.34;4913736;28;20054;-73
2023/10/07 06:18:21;;;;;;;6.60;2.50;;;;;;;13.55;67.84;101511.50;4917603;28;20090;-72
2023/10/07 06:20:46;;;;;;;10.18;3.38;;;;;;;13.56;67.55;101505.31;4924326;28;20067;-71
2023/10/07 06:23:17;;;;;;;13.23;3.15;;;;;;;13.96;66.18;101504.47;4901081;28;20279;-72
2023/10/07 06:25:51;;;;;;;8.07;2.90;;;;;;;13.82;66.64;101502.44;4912950;28;20047;-70
2023/10/07 06:31:31;;;;;;;13.93;2.70;;;;;;;13.61;67.32;101503.41;4911732;28;20051;-70
2023/10/07 06:36:39;;;;;;;10.40;2.63;;;;;;;13.63;67.16;101501.53;4916683;28;20510;-69
2023/10/07 06:39:07;;;;;;;24.63;3.33;;;;;;;13.39;68.36;101514.78;4931433;28;20518;-69
2023/10/07 06:41:34;;;;;;;11.63;2.85;;;;;;;13.85;66.63;101511.97;4920600;28;20099;-70
2023/10/07 06:44:04;;;;;;;11.65;2.92;;;;;;;13.37;67.95;101516.59;4910472;28;20036;-70
2023/10/07 06:46:54;;;;;;;10.02;3.72;;;;;;;13.84;66.82;101513.75;4918101;28;20117;-70
2023/10/07 06:49:34;;;;;;;11.13;2.58;;;;;;;13.52;67.88;101509.88;4920936;28;20071;-70
2023/10/07 06:52:03;;;;;;;9.15;3.22;;;;;;;13.32;68.53;101519.41;4911607;28;20601;-70
2023/10/07 06:54:35;;;;;;;9.55;3.63;;;;;;;13.52;68.28;101518.59;4920845;28;20036;-70
2023/10/07 06:57:09;;;;;;;6.65;2.17;;;;;;;13.65;67.13;101518.97;4910694;28;20627;-70
2023/10/07 06:59:34;;;;;;;12.02;2.50;;;;;;;13.73;67.19;101522.09;4917195;28;20047;-70
2023/10/07 07:02:06;;;;;;;11.70;2.80;;;;;;;13.59;67.59;101521.84;4912891;28;20529;-70
2023/10/07 07:04:35;;;;;;;8.73;2.88;;;;;;;13.74;67.07;101520.31;4914834;28;20486;-70
2023/10/07 07:07:10;;;;;;;9.35;2.78;;;;;;;13.21;69.47;101520.78;4910534;28;20129;-70
2023/10/07 07:12:16;;;;;;;16.58;2.72;;;;;;;13.70;67.23;101519.63;4929465;28;20473;-70
2023/10/07 07:17:43;;;;;;;7.03;1.70;;;;;;;13.32;68.79;101515.94;4917510;28;20114;-69
2023/10/07 07:22:38;;;;;;;4.43;1.13;;;;;;;12.94;69.45;101534.09;4930550;28;20569;-70
2023/10/07 07:25:10;;;;;;;9.23;1.90;;;;;;;13.19;68.82;101533.97;4921007;28;20039;-69
2023/10/07 07:27:44;;;;;;;8.35;1.27;;;;;;;13.48;67.90;101535.38;4917077;28;20126;-70
2023/10/07 07:30:19;;;;;;;5.53;1.77;;;;;;;13.37;67.52;101536.75;4916313;28;20527;-70
2023/10/07 07:32:55;;;;;;;4.05;1.33;;;;;;;13.36;67.52;101541.16;4914925;28;20043;-70
2023/10/07 07:35:57;;;;;;;2.30;0.57;;;;;;;12.99;68.64;101528.66;4918970;28;20054;-69
2023/10/07 07:38:29;;;;;;;10.07;2.20;;;;;;;13.03;67.88;101535.50;4916260;28;20487;-69
2023/10/07 07:41:10;;;;;;;5.45;1.00;;;;;;;13.19;67.53;101533.13;4923902;28;20050;-70
2023/10/07 07:43:39;;;;;;;5.47;1.23;;;;;;;13.53;66.61;101527.31;4917597;28;20115;-70
2023/10/07 07:46:21;;;;;;;5.50;1.05;;;;;;;13.01;68.54;101540.81;4926345;28;20054;-70
2023/10/07 07:48:51;;;;;;;;;;;;;;;12.91;68.87;101544.69;4904751;28;20032;-70
2023/10/07 07:51:17;;;;;;;10.18;0.90;;;;;;;13.01;68.01;101529.47;4918387;28;20584;-70
2023/10/07 07:53:44;;;;;;;6.22;1.25;;;;;;;12.92;68.56;101524.59;4912843;28;20033;-70
2023/10/07 07:56:13;;;;;;;10.50;1.50;;;;;;;13.16;68.15;101536.72;4916962;28;20032;-70
2023/10/07 07:58:47;;;;;;;5.35;0.77;;;;;;;13.39;67.09;101542.81;4931011;28;20032;-70
2023/10/07 08:01:19;;;;;;;3.22;1.08;;;;;;;13.15;68.12;101536.78;4912475;28;20482;-69
2023/10/07 08:03:45;;;;;;;6.38;0.70;;;;;;;13.24;67.60;101544.28;4898586;28;20692;-70
2023/10/07 08:06:12;;;;;;;14.55;1.48;;;;;;;12.89;68.75;101546.53;4928177;28;20150;-70
2023/10/07 08:08:42;;;;;;;5.45;1.30;;;;;;;13.00;68.76;101549.56;4936231;28;20036;-69
2023/10/07 08:11:13;;;;;;;2.15;0.80;;;;;;;13.41;67.43;101551.47;4917611;28;20110;-70
2023/10/07 08:13:39;;;;;;;4.97;1.27;;;;;;;13.53;66.91;101545.69;4921109;28;20453;-70
2023/10/07 08:16:06;;;;;;;4.32;1.13;;;;;;;13.20;67.85;101545.31;4913318;28;20051;-69
2023/10/07 08:18:31;;;;;;;9.68;0.60;;;;;;;13.57;66.68;101551.72;4934999;28;20055;-69
2023/10/07 08:21:09;;;;;;;4.25;0.50;;;;;;;13.40;67.36;101553.22;4910234;28;20051;-70
2023/10/07 08:23:40;;;;;;;10.70;1.10;;;;;;;13.11;68.05;101555.25;4920621;28;20070;-70
2023/10/07 08:26:10;;;;;;;4.75;1.00;;;;;;;13.55;67.19;101551.75;4910378;28;20044;-70
2023/10/07 08:28:45;;;;;;;3.80;0.70;;;;;;;13.69;66.34;101554.66;4906765;29;20055;-70
2023/10/07 08:31:20;;;;;;;3.08;0.70;;;;;;;13.64;66.32;101566.31;4919351;28;20365;-69
2023/10/07 08:36:31;;;;;;;4.00;0.50;;;;;;;13.31;68.00;101553.59;4918609;28;20046;-69
2023/10/07 08:38:59;;;;;;;3.53;0.30;;;;;;;13.43;67.05;101558.38;4909386;28;20276;-69
2023/10/07 08:41:31;;;;;;;3.92;0.73;;;;;;;13.42;67.49;101563.66;4918652;28;20058;-69
2023/10/07 08:44:13;;;;;;;4.90;0.45;;;;;;;13.67;66.73;101563.53;4916891;28;20046;-69
2023/10/07 08:46:54;;;;;;;2.80;0.32;;;;;;;13.94;65.50;101559.75;4920066;28;20051;-70
2023/10/07 08:49:35;;;;;;;4.50;0.52;;;;;;;13.38;67.43;101565.56;4897379;28;20074;-69
2023/10/07 08:52:08;;;;;;;3.42;1.13;;;;;;;13.48;67.29;101569.53;4915135;28;20091;-69
2023/10/07 08:54:37;;;;;;;2.55;0.50;;;;;;;13.02;68.21;101568.75;4932796;28;20058;-69
2023/10/07 08:57:37;;;;;;;6.15;0.45;;;;;;;13.30;67.44;101573.75;4913621;28;20043;-70
2023/10/07 08:59:59;;;;;;;2.50;0.73;;;;;;;13.87;66.18;101574.03;4922468;28;20091;-69
2023/10/07 09:02:30;;;;;;;5.10;0.80;;;;;;;13.77;66.33;101587.66;4921670;28;20043;-69
2023/10/07 09:05:09;;;;;;;4.72;0.70;;;;;;;13.86;66.01;101585.50;4929315;28;20135;-69
2023/10/07 09:07:37;;;;;;;2.55;0.47;;;;;;;14.10;65.14;101588.00;4933746;28;20658;-69
2023/10/07 09:10:14;;;;;;;4.97;1.60;;;;;;;14.09;65.64;101581.00;4929062;28;20031;-68
2023/10/07 09:12:49;;;;;;;3.22;0.70;;;;;;;13.86;66.40;101587.28;4919997;28;20028;-69
2023/10/07 09:15:26;;;;;;;5.53;0.70;;;;;;;13.68;66.33;101591.53;4917949;28;20506;-69
2023/10/07 09:18:06;;;;;;;4.30;0.70;;;;;;;13.72;65.83;101590.47;4916834;28;20078;-69
2023/10/07 09:20:36;;;;;;;4.88;0.55;;;;;;;13.88;65.43;101586.28;4919743;28;20043;-69
2023/10/07 09:23:08;;;;;;;3.35;0.60;;;;;;;13.88;65.18;101586.28;4912031;28;20151;-69
2023/10/07 09:25:33;;;;;;;4.30;0.70;;;;;;;13.77;65.41;101577.16;4908950;28;20086;-69
2023/10/07 09:28:01;;;;;;;4.88;0.98;;;;;;;13.76;65.38;101586.78;4929709;28;20355;-69
2023/10/07 09:33:17;;;;;;;7.57;1.48;;;;;;;14.09;64.75;101594.16;4929854;28;20035;-69
2023/10/07 09:36:33;;;;;;;3.55;0.65;;;;;;;14.11;64.19;101587.06;4918391;28;20494;-69
2023/10/07 09:38:34;;;;;;;9.57;2.10;;;;;;;13.90;64.39;101594.94;4922665;28;20048;-68
2023/10/07 09:41:12;;;;;;;6.57;1.25;;;;;;;13.95;64.38;101586.88;4921696;28;20311;-69
2023/10/07 09:43:43;;;;;;;9.23;0.98;;;;;;;13.81;65.03;101582.22;4924587;28;20236;-69
2023/10/07 09:46:14;;;;;;;6.43;1.45;;;;;;;13.87;64.91;101589.81;4927231;28;20082;-69
2023/10/07 09:48:45;;;;;;;11.95;2.72;;;;;;;13.60;65.79;101602.34;4910364;29;20051;-69
2023/10/07 09:51:23;;;;;;;13.57;1.77;;;;;;;14.02;64.64;101595.34;4913945;28;20093;-69
2023/10/07 09:54:22;;;;;;;8.65;2.42;;;;;;;13.84;64.90;101595.22;4916057;28;20196;-69
2023/10/07 09:57:06;;;;;;;13.60;2.10;;;;;;;14.03;64.34;101599.66;4920185;28;20070;-69
2023/10/07 09:59:51;;;;;;;19.40;2.53;;;;;;;14.00;64.62;101594.56;4928469;28;20071;-69
2023/10/07 10:02:46;;;;;;;13.52;2.17;;;;;;;13.61;65.51;101592.72;4932454;28;20127;-69
2023/10/07 10:05:38;;;;;;;11.77;2.50;;;;;;;13.35;66.10;101597.19;4913521;28;20058;-69
2023/10/07 10:08:55;;;;;;;19.42;3.30;;;;;;;13.44;65.92;101607.31;4923542;28;20039;-69
2023/10/07 10:11:44;;;;;;;16.90;3.28;;;;;;;13.83;64.47;101614.53;4916784;28;20549;-70
2023/10/07 10:16:52;;;;;;;19.20;2.17;;;;;;;14.03;64.10;101605.81;4931500;28;20074;-69
2023/10/07 10:19:37;;;;;;;19.52;3.30;;;;;;;13.74;64.10;101614.88;4916985;28;20635;-69
2023/10/07 10:22:13;;;;;;;16.95;3.80;;;;;;;14.21;63.37;101624.31;4916551;28;20038;-69
2023/10/07 10:24:43;;;;;;;21.75;3.80;;;;;;;14.26;62.73;101617.94;4915216;28;20051;-70
2023/10/07 10:27:13;;;;;;;17.95;3.22;;;;;;;14.12;63.12;101625.56;4913330;28;20134;-70
2023/10/07 10:29:55;;;;;;;20.35;3.08;;;;;;;13.97;63.05;101627.09;4918963;28;20058;-69
2023/10/07 10:32:28;;;;;;;15.95;3.00;;;;;;;13.38;64.88;101628.56;4917922;28;20102;-69
2023/10/07 10:35:03;;;;;;;16.58;2.53;;;;;;;13.90;63.31;101641.41;4916694;28;20047;-69
2023/10/07 10:37:30;;;;;;;16.50;3.00;;;;;;;13.90;63.30;101636.16;4911437;28;20898;-69
2023/10/07 10:39:57;;;;;;;14.52;3.08;;;;;;;13.82;63.39;101652.22;4911752;28;20708;-69
2023/10/07 10:42:24;;;;;;;12.55;2.22;;;;;;;13.66;63.97;101648.53;4916279;28;20058;-68
2023/10/07 10:44:53;;;;;;;14.25;3.22;;;;;;;13.78;63.58;101660.28;4916190;28;20074;-68
2023/10/07 10:47:18;;;;;;;14.77;2.95;;;;;;;13.52;64.35;101670.91;4914467;28;20178;-69
2023/10/07 10:49:45;;;;;;;17.00;3.47;;;;;;;13.87;63.45;101676.53;4918048;28;20056;-70
2023/10/07 10:52:12;;;;;;;10.18;2.55;;;;;;;13.49;64.57;101652.63;4908235;28;20130;-69
2023/10/07 10:54:39;;;;;;;22.83;2.90;;;;;;;13.69;64.18;101661.53;4903334;28;20043;-70
2023/10/07 10:57:07;;;;;;;17.17;3.08;;;;;;;14.00;63.46;101662.88;4910206;28;20418;-70
2023/10/07 10:59:42;;;;;;;14.20;2.95;;;;;;;13.83;63.97;101672.34;4921124;28;20043;-70
2023/10/07 11:02:09;;;;;;;17.67;3.20;;;;;;;13.60;64.23;101667.16;4903521;28;20051;-70
2023/10/07 11:04:35;;;;;;;13.15;2.75;;;;;;;13.52;65.06;101667.44;4914900;28;20102;-69
2023/10/07 11:07:00;;;;;;;17.85;3.30;;;;;;;13.89;63.67;101674.69;4913178;28;20051;-70
2023/10/07 11:09:33;;;;;;;16.38;3.13;;;;;;;13.77;64.24;101672.59;4921426;28;20078;-70
2023/10/07 11:12:08;;;;;;;15.85;2.75;;;;;;;13.69;64.32;101674.66;4910233;28;20294;-70
2023/10/07 11:14:35;;;;;;;16.45;3.80;;;;;;;13.81;64.12;101682.06;4919620;28;20426;-70
2023/10/07 11:17:03;;;;;;;29.13;4.50;;;;;;;13.85;63.69;101686.28;4901675;28;20461;-70
2023/10/07 11:19:31;;;;;;;26.00;4.45;;;;;;;13.92;63.74;101677.22;4916411;28;20095;-70
2023/10/07 11:21:57;;;;;;;19.58;3.45;;;;;;;13.60;64.89;101677.66;4920947;28;20045;-68
2023/10/07 11:24:30;;;;;;;20.77;3.90;;;;;;;13.92;63.89;101673.72;4905699;28;20063;-70
2023/10/07 11:26:59;;;;;;;11.68;3.15;;;;;;;13.95;64.00;101676.22;4912207;28;20467;-69
2023/10/07 11:29:32;;;;;;;14.05;2.92;;;;;;;13.72;64.26;101678.03;4930943;28;20051;-69
2023/10/07 11:32:08;;;;;;;19.83;3.05;;;;;;;13.99;63.83;101687.47;4910940;28;20238;-71
2023/10/07 11:34:38;;;;;;;22.17;3.38;;;;;;;13.67;64.79;101684.38;4906179;28;20575;-70
2023/10/07 11:37:13;;;;;;;20.05;4.05;;;;;;;13.72;64.66;101685.91;4909353;28;20593;-70
2023/10/07 11:39:45;;;;;;;16.60;2.75;;;;;;;13.77;63.71;101677.84;4917292;28;20078;-70
2023/10/07 11:42:16;;;;;;;23.23;3.38;;;;;;;14.03;63.07;101678.50;4913183;28;20039;-70
2023/10/07 11:44:45;;;;;;;;;;;;;;;14.10;62.43;101680.84;4920251;28;20493;-70
2023/10/07 11:47:11;;;;;;;16.10;3.33;;;;;;;14.00;62.99;101684.75;4928916;28;19965;-70
2023/10/07 11:49:37;;;;;;;22.15;3.65;;;;;;;13.92;62.92;101679.84;4917425;28;20046;-70
2023/10/07 11:52:06;;;;;;;13.20;3.92;;;;;;;14.13;62.50;101685.13;4930719;28;20086;-70
2023/10/07 11:54:35;;;;;;;16.48;3.72;;;;;;;13.99;62.64;101677.81;4917166;28;20062;-70
2023/10/07 11:57:05;;;;;;;19.00;3.92;;;;;;;13.62;63.75;101683.72;4901822;28;20506;-70
2023/10/07 11:59:31;;;;;;;19.23;3.45;;;;;;;13.70;63.31;101676.38;4922766;28;20100;-70
2023/10/07 12:01:57;;;;;;;21.52;3.92;;;;;;;13.99;62.30;101677.81;4918412;28;20071;-70
2023/10/07 12:04:23;;;;;;;10.75;2.45;;;;;;;13.66;63.22;101674.78;4915632;28;20514;-70
2023/10/07 12:06:51;;;;;;;22.15;3.88;;;;;;;13.91;62.59;101675.47;4916976;28;20312;-70
2023/10/07 12:09:21;;;;;;;14.77;4.15;;;;;;;14.00;62.32;101679.50;4914585;28;20047;-70
2023/10/07 12:11:48;;;;;;;16.02;3.33;;;;;;;13.73;63.39;101666.59;4922189;28;20032;-69
2023/10/07 12:14:14;;;;;;;10.20;2.85;;;;;;;13.69;63.81;101649.22;4916162;28;20198;-70
2023/10/07 12:16:43;;;;;;;22.15;3.95;;;;;;;13.99;62.70;101661.19;4915872;28;20466;-70
2023/10/07 12:19:17;;;;;;;13.15;2.08;;;;;;;13.78;63.32;101652.41;4913722;28;21029;-70
2023/10/07 12:21:43;;;;;;;13.75;2.67;;;;;;;14.11;62.47;101645.72;4933727;28;20039;-70
2023/10/07 12:24:11;;;;;;;15.57;2.85;;;;;;;14.55;61.68;101650.03;4914243;28;20039;-69
2023/10/07 12:26:37;;;;;;;14.25;3.60;;;;;;;14.48;61.30;101648.59;4931429;28;20529;-69
2023/10/07 12:29:06;;;;;;;17.02;3.47;;;;;;;14.62;61.35;101651.44;4913977;28;20043;-69
2023/10/07 12:31:32;;;;;;;16.60;3.45;;;;;;;14.27;61.79;101653.81;4916846;28;20035;-68
2023/10/07 12:33:59;;;;;;;16.70;2.83;;;;;;;14.56;60.86;101660.47;4930650;28;20511;-68
2023/10/07 12:36:25;;;;;;;19.85;4.10;;;;;;;14.72;60.66;101644.88;4899395;28;20131;-69
2023/10/07 12:38:50;;;;;;;19.35;4.40;;;;;;;14.75;60.32;101652.59;4919065;28;20586;-69
2023/10/07 12:41:18;;;;;;;12.05;2.88;;;;;;;14.59;60.50;101651.59;4928773;28;22124;-69
2023/10/07 12:43:44;;;;;;;13.60;3.20;;;;;;;14.29;60.96;101649.34;4915049;28;20271;-71
2023/10/07 12:46:09;;;;;;;19.23;4.38;;;;;;;14.29;61.14;101653.75;4913090;28;20050;-68
2023/10/07 12:48:40;;;;;;;13.48;2.33;;;;;;;13.78;62.62;101653.25;4916491;28;20522;-69